Time;durP1;ratioP1;P1;durP2;ratioP2;P2;SDS_P1;SDS_P2;PMS_P1;PMS_P2;Temp;Humidity;BMP_temperature;BMP_pressure;BME280_temperature;BME280_humidity;BME280_pressure;Samples;Min_cycle;Max_cycle;Signal;HPM_P1;HPM_P2
2021/06/26 00:01:24;;;;;;;10.87;5.40;;;22.20;99.90;;;;;;5095503;28;20212;-66
2021/06/26 00:03:50;;;;;;;8.50;5.93;;;22.10;99.90;;;;;;5095921;28;20416;-66
2021/06/26 00:06:16;;;;;;;6.90;6.20;;;22.20;99.90;;;;;;5095450;28;20425;-68
2021/06/26 00:08:41;;;;;;;6.93;6.17;;;22.20;99.90;;;;;;5095848;28;20173;-67
2021/06/26 00:11:07;;;;;;;8.10;6.40;;;22.20;99.90;;;;;;5095077;28;20223;-66
2021/06/26 00:13:33;;;;;;;7.03;5.97;;;21.90;99.90;;;;;;5111238;28;20212;-69
2021/06/26 00:15:58;;;;;;;8.03;5.87;;;21.90;99.90;;;;;;5110873;28;20278;-69
2021/06/26 00:18:24;;;;;;;9.73;7.40;;;22.10;99.90;;;;;;5095577;28;20412;-66
2021/06/26 00:20:50;;;;;;;8.60;6.90;;;22.10;99.90;;;;;;5095148;28;20252;-67
2021/06/26 00:23:15;;;;;;;8.87;6.63;;;22.00;99.90;;;;;;5095455;28;20173;-67
2021/06/26 00:25:41;;;;;;;8.87;6.30;;;22.10;99.90;;;;;;5094931;28;20651;-68
2021/06/26 00:28:07;;;;;;;7.27;5.43;;;22.20;99.90;;;;;;5095144;28;20184;-69
2021/06/26 00:30:32;;;;;;;8.07;6.50;;;22.40;99.90;;;;;;5094885;28;20550;-67
2021/06/26 00:32:58;;;;;;;8.57;6.23;;;22.40;99.90;;;;;;5110514;28;20218;-66
2021/06/26 00:35:24;;;;;;;8.60;6.33;;;22.50;99.90;;;;;;5110592;28;20674;-66
2021/06/26 00:37:50;;;;;;;8.77;6.37;;;22.50;99.90;;;;;;5095108;28;20227;-67
2021/06/26 00:40:16;;;;;;;9.10;7.03;;;22.50;99.90;;;;;;5110510;28;20994;-66
2021/06/26 00:42:44;;;;;;;9.67;6.23;;;22.50;99.90;;;;;;5095030;28;20222;-68
2021/06/26 00:45:12;;;;;;;8.57;6.20;;;22.50;99.90;;;;;;5094676;28;20198;-66
2021/06/26 00:47:39;;;;;;;8.47;6.83;;;22.50;99.90;;;;;;5094808;28;20478;-67
2021/06/26 00:50:17;;;;;;;10.23;7.27;;;22.50;99.90;;;;;;5094466;28;20472;-69
2021/06/26 00:52:43;;;;;;;8.57;7.07;;;22.50;99.90;;;;;;5094513;28;20420;-67
2021/06/26 00:55:10;;;;;;;8.30;6.27;;;22.50;99.90;;;;;;5110213;28;20431;-66
2021/06/26 00:57:36;;;;;;;8.20;6.30;;;22.60;99.90;;;;;;5094725;28;20413;-67
2021/06/26 01:00:06;;;;;;;9.23;6.40;;;22.60;99.90;;;;;;5094439;28;20899;-68
2021/06/26 01:02:32;;;;;;;8.70;7.27;;;22.50;99.90;;;;;;5110291;28;20822;-68
2021/06/26 01:04:58;;;;;;;11.57;6.30;;;22.50;99.90;;;;;;5094311;28;20412;-69
2021/06/26 01:07:24;;;;;;;9.57;7.40;;;22.40;99.90;;;;;;5094594;28;20180;-68
2021/06/26 01:09:49;;;;;;;8.13;6.30;;;22.30;99.90;;;;;;5094263;28;20295;-67
2021/06/26 01:12:15;;;;;;;9.10;7.00;;;22.30;99.90;;;;;;5094157;28;20409;-66
2021/06/26 01:14:41;;;;;;;8.97;7.10;;;22.40;99.90;;;;;;5094256;28;20176;-67
2021/06/26 01:17:07;;;;;;;8.67;7.17;;;22.50;99.90;;;;;;5109749;28;20517;-66
2021/06/26 01:19:34;;;;;;;11.27;6.60;;;22.40;99.90;;;;;;5094175;28;20207;-66
2021/06/26 01:22:03;;;;;;;11.73;7.67;;;22.30;99.90;;;;;;5109721;28;20497;-66
2021/06/26 01:24:29;;;;;;;8.03;7.07;;;22.30;99.90;;;;;;5093967;28;20448;-65
2021/06/26 01:26:59;;;;;;;9.70;8.23;;;22.30;99.90;;;;;;5109626;28;20449;-69
2021/06/26 01:29:26;;;;;;;10.17;8.33;;;22.40;99.90;;;;;;5109661;28;20279;-66
2021/06/26 01:31:52;;;;;;;10.80;8.87;;;22.40;99.90;;;;;;5092315;28;20461;-66
2021/06/26 01:34:18;;;;;;;11.37;8.00;;;22.30;99.90;;;;;;5094035;28;20933;-66
2021/06/26 01:36:44;;;;;;;11.13;7.90;;;22.30;99.90;;;;;;5093933;28;20499;-66
2021/06/26 01:39:10;;;;;;;9.93;8.20;;;22.20;99.90;;;;;;5093505;28;21013;-67
2021/06/26 01:41:35;;;;;;;9.50;8.60;;;22.30;99.90;;;;;;5093663;28;20196;-67
2021/06/26 01:44:02;;;;;;;11.10;8.00;;;22.20;99.90;;;;;;5094308;28;20172;-67
2021/06/26 01:46:28;;;;;;;12.60;8.40;;;22.20;99.90;;;;;;5109524;28;20688;-67
2021/06/26 01:49:11;;;;;;;9.90;8.27;;;22.20;99.90;;;;;;5094230;28;20432;-68
2021/06/26 01:51:37;;;;;;;9.60;8.60;;;22.20;99.90;;;;;;5093696;28;20263;-67
2021/06/26 01:54:05;;;;;;;12.70;8.70;;;22.20;99.90;;;;;;5094140;28;20408;-66
2021/06/26 01:56:31;;;;;;;12.00;8.13;;;22.20;99.90;;;;;;5093721;28;20428;-69
2021/06/26 01:58:57;;;;;;;13.20;8.70;;;22.30;99.90;;;;;;5094103;28;20487;-66
2021/06/26 02:01:23;;;;;;;9.77;7.97;;;22.20;99.90;;;;;;5093717;28;20424;-68
2021/06/26 02:03:48;;;;;;;9.37;8.47;;;22.20;99.90;;;;;;5109481;28;20429;-66
2021/06/26 02:06:14;;;;;;;10.33;8.30;;;22.20;99.90;;;;;;5093641;28;20201;-68
2021/06/26 02:08:40;;;;;;;11.03;8.70;;;22.20;99.90;;;;;;5094139;28;20173;-66
2021/06/26 02:11:05;;;;;;;11.70;8.37;;;22.10;99.90;;;;;;5093393;28;20220;-67
2021/06/26 02:13:31;;;;;;;9.17;8.17;;;22.00;99.90;;;;;;5093739;28;20169;-67
2021/06/26 02:15:56;;;;;;;11.13;8.50;;;22.00;99.90;;;;;;5109177;28;20674;-68
2021/06/26 02:18:22;;;;;;;10.10;8.17;;;22.00;99.90;;;;;;5109309;28;20562;-66
2021/06/26 02:20:48;;;;;;;11.20;8.70;;;22.00;99.90;;;;;;5093518;28;20666;-66
2021/06/26 02:23:13;;;;;;;9.40;7.80;;;22.00;99.90;;;;;;5093762;28;20652;-66
2021/06/26 02:25:39;;;;;;;10.37;9.23;;;21.90;99.90;;;;;;5109125;28;20236;-66
2021/06/26 02:28:05;;;;;;;11.03;9.00;;;21.90;99.90;;;;;;5109243;28;20766;-69
2021/06/26 02:30:31;;;;;;;12.30;8.40;;;21.90;99.90;;;;;;5093307;28;20216;-66
2021/06/26 02:32:56;;;;;;;9.60;8.53;;;21.80;99.90;;;;;;5108957;28;20661;-66
2021/06/26 02:35:22;;;;;;;9.83;8.33;;;21.80;99.90;;;;;;5093326;28;20227;-69
2021/06/26 02:37:48;;;;;;;8.43;7.60;;;21.80;99.90;;;;;;5109173;28;20177;-69
2021/06/26 02:40:14;;;;;;;9.90;7.33;;;21.80;99.90;;;;;;5093458;28;20224;-68
2021/06/26 02:42:40;;;;;;;11.10;7.80;;;21.70;99.90;;;;;;5093470;28;20176;-66
2021/06/26 02:45:07;;;;;;;8.00;7.20;;;21.70;99.90;;;;;;5093294;28;20429;-66
2021/06/26 02:47:32;;;;;;;8.40;7.57;;;21.70;99.90;;;;;;5093291;28;20420;-66
2021/06/26 02:49:58;;;;;;;8.10;6.83;;;21.60;99.90;;;;;;5093415;28;20457;-66
2021/06/26 02:52:24;;;;;;;10.40;7.50;;;21.50;99.90;;;;;;5096834;28;20207;-69
2021/06/26 02:54:49;;;;;;;8.67;6.77;;;21.50;99.90;;;;;;5096794;28;20177;-66
2021/06/26 02:57:16;;;;;;;11.10;7.00;;;21.50;99.90;;;;;;5112633;28;20180;-66
2021/06/26 02:59:44;;;;;;;10.70;6.83;;;21.50;99.90;;;;;;5096891;28;20393;-66
2021/06/26 03:02:10;;;;;;;9.33;6.90;;;21.40;99.90;;;;;;5112435;28;20523;-66
2021/06/26 03:04:35;;;;;;;7.20;6.47;;;21.40;99.90;;;;;;5096780;28;20436;-67
2021/06/26 03:07:02;;;;;;;6.97;6.30;;;21.30;99.90;;;;;;5096543;28;20429;-67
2021/06/26 03:09:27;;;;;;;13.60;7.33;;;21.20;99.90;;;;;;5096535;28;20168;-68
2021/06/26 03:11:53;;;;;;;7.50;6.33;;;21.30;99.90;;;;;;5112142;28;20536;-66
2021/06/26 03:14:18;;;;;;;7.90;6.20;;;21.40;99.90;;;;;;5096372;28;20676;-68
2021/06/26 03:16:44;;;;;;;8.70;6.30;;;21.40;99.90;;;;;;5096469;28;20233;-66
2021/06/26 03:19:10;;;;;;;6.40;5.80;;;21.30;99.90;;;;;;5096909;28;20179;-67
2021/06/26 03:21:35;;;;;;;7.70;6.20;;;21.30;99.90;;;;;;5096304;28;20274;-69
2021/06/26 03:24:01;;;;;;;7.60;6.90;;;21.20;99.90;;;;;;5096289;28;20224;-66
2021/06/26 03:26:26;;;;;;;6.97;6.30;;;21.10;99.90;;;;;;5096257;28;20653;-67
2021/06/26 03:28:52;;;;;;;6.97;5.40;;;21.10;99.90;;;;;;5112084;28;20188;-68
2021/06/26 03:31:17;;;;;;;7.47;6.73;;;21.00;99.90;;;;;;5096110;28;20611;-67
2021/06/26 03:33:43;;;;;;;6.33;5.60;;;21.10;99.90;;;;;;5096506;28;20180;-68
2021/06/26 03:36:09;;;;;;;7.20;5.80;;;21.20;99.90;;;;;;5096028;28;20195;-66
2021/06/26 03:38:35;;;;;;;7.53;5.67;;;21.20;99.90;;;;;;5111945;28;20192;-67
2021/06/26 03:41:00;;;;;;;7.90;5.27;;;21.20;99.90;;;;;;5095931;28;20427;-65
2021/06/26 03:43:26;;;;;;;7.77;5.73;;;21.20;99.90;;;;;;5096311;28;20269;-68
2021/06/26 03:45:52;;;;;;;8.73;5.30;;;21.20;99.90;;;;;;5111506;28;20200;-66
2021/06/26 03:48:18;;;;;;;10.37;5.33;;;21.30;99.90;;;;;;5096311;28;20222;-66
2021/06/26 03:50:43;;;;;;;5.37;4.87;;;21.20;99.90;;;;;;5095698;28;20461;-66
2021/06/26 03:53:10;;;;;;;7.13;5.57;;;21.10;99.90;;;;;;5095838;28;20176;-69
2021/06/26 03:55:35;;;;;;;8.00;5.77;;;21.00;99.90;;;;;;5095755;28;20653;-67
2021/06/26 03:58:01;;;;;;;6.50;5.57;;;21.00;99.90;;;;;;5111540;28;20439;-66
2021/06/26 04:00:27;;;;;;;7.83;5.87;;;21.00;99.90;;;;;;5095618;28;20200;-68
2021/06/26 04:02:52;;;;;;;10.30;5.30;;;21.00;99.90;;;;;;5095232;28;20176;-66
2021/06/26 04:05:18;;;;;;;6.07;5.47;;;21.10;99.90;;;;;;5095633;28;20188;-66
2021/06/26 04:07:43;;;;;;;7.80;6.10;;;21.20;99.90;;;;;;5095726;28;20574;-66
2021/06/26 04:10:10;;;;;;;11.93;5.77;;;21.20;99.90;;;;;;5111004;28;20239;-67
2021/06/26 04:12:36;;;;;;;7.83;4.93;;;21.30;99.90;;;;;;5110903;28;20234;-68
2021/06/26 04:15:01;;;;;;;12.23;5.53;;;21.30;99.90;;;;;;5095305;28;20425;-68
2021/06/26 04:17:27;;;;;;;10.00;5.47;;;21.30;99.90;;;;;;5095395;28;20629;-69
2021/06/26 04:19:53;;;;;;;7.60;6.07;;;21.40;99.90;;;;;;5095194;28;20664;-66
2021/06/26 04:22:18;;;;;;;6.00;5.40;;;21.50;99.90;;;;;;5095287;28;20421;-68
2021/06/26 04:24:44;;;;;;;9.80;6.90;;;21.60;99.90;;;;;;5095078;28;20607;-66
2021/06/26 04:27:10;;;;;;;7.33;5.90;;;21.60;99.90;;;;;;5110702;28;20185;-69
2021/06/26 04:29:35;;;;;;;7.60;6.90;;;21.70;99.90;;;;;;5095015;28;20184;-68
2021/06/26 04:32:01;;;;;;;17.23;6.60;;;21.60;99.90;;;;;;5094947;28;20184;-67
2021/06/26 04:34:26;;;;;;;8.83;6.80;;;21.70;99.90;;;;;;5093528;28;20747;-68
2021/06/26 04:36:53;;;;;;;7.23;6.53;;;21.70;99.90;;;;;;5094813;28;20531;-69
2021/06/26 04:39:19;;;;;;;11.20;7.23;;;21.80;99.90;;;;;;5094864;28;20161;-70
2021/06/26 04:41:44;;;;;;;8.10;6.97;;;21.90;99.90;;;;;;5094793;28;20424;-67
2021/06/26 04:44:10;;;;;;;7.53;6.83;;;21.90;99.90;;;;;;5094760;28;20188;-67
2021/06/26 04:46:36;;;;;;;7.97;7.13;;;21.70;99.90;;;;;;5094684;28;20192;-67
2021/06/26 04:49:04;;;;;;;8.53;6.97;;;21.70;99.90;;;;;;5110330;28;20184;-66
2021/06/26 04:51:29;;;;;;;10.00;8.30;;;21.80;99.90;;;;;;5094487;28;20999;-69
2021/06/26 04:53:55;;;;;;;9.00;8.10;;;21.80;99.90;;;;;;5094841;28;20417;-66
2021/06/26 04:56:21;;;;;;;8.90;8.03;;;21.80;99.90;;;;;;5094456;28;20196;-66
2021/06/26 04:58:46;;;;;;;8.13;7.33;;;21.80;99.90;;;;;;5094917;28;20702;-69
2021/06/26 05:01:12;;;;;;;8.43;7.20;;;21.80;99.90;;;;;;5094266;28;20196;-66
2021/06/26 05:03:40;;;;;;;14.13;8.37;;;21.90;99.90;;;;;;5094796;28;20187;-69
2021/06/26 05:06:06;;;;;;;9.40;6.80;;;22.00;99.90;;;;;;5110046;28;20200;-66
2021/06/26 05:08:32;;;;;;;7.83;7.07;;;22.00;99.90;;;;;;5094707;28;20906;-67
2021/06/26 05:10:57;;;;;;;8.20;7.40;;;22.10;99.90;;;;;;5093957;28;20291;-67
2021/06/26 05:13:23;;;;;;;12.47;11.47;;;22.30;99.90;;;;;;5092060;28;20416;-69
2021/06/26 05:15:48;;;;;;;10.60;8.30;;;22.30;99.90;;;;;;5107732;28;20200;-66
2021/06/26 05:18:14;;;;;;;8.80;7.83;;;22.10;99.90;;;;;;5094489;28;20181;-68
2021/06/26 05:20:40;;;;;;;9.13;7.93;;;22.20;99.90;;;;;;5107686;28;20645;-65
2021/06/26 05:23:17;;;;;;;8.40;7.30;;;22.20;99.90;;;;;;5109018;28;20383;-67
2021/06/26 05:25:43;;;;;;;11.00;8.37;;;22.30;99.90;;;;;;5093063;28;20487;-65
2021/06/26 05:28:10;;;;;;;9.13;8.23;;;22.40;99.90;;;;;;5094348;28;20415;-65
2021/06/26 05:30:36;;;;;;;9.63;8.33;;;22.40;99.90;;;;;;5109582;28;20480;-68
2021/06/26 05:33:02;;;;;;;9.17;8.27;;;22.40;99.90;;;;;;5092739;28;20438;-67
2021/06/26 05:35:28;;;;;;;10.87;8.77;;;22.50;99.90;;;;;;5092072;28;20481;-66
2021/06/26 05:37:54;;;;;;;9.93;9.03;;;22.50;99.90;;;;;;5091982;28;20433;-67
2021/06/26 05:40:19;;;;;;;8.90;7.90;;;22.60;99.90;;;;;;5090407;28;20685;-66
2021/06/26 05:42:45;;;;;;;10.03;8.40;;;22.60;99.90;;;;;;5090512;28;20186;-67
2021/06/26 05:45:11;;;;;;;9.47;8.57;;;22.60;99.90;;;;;;5107335;28;20219;-67
2021/06/26 05:47:36;;;;;;;10.33;9.27;;;22.80;99.90;;;;;;5092530;28;20242;-66
2021/06/26 05:50:02;;;;;;;10.73;8.30;;;22.80;99.90;;;;;;5093725;28;20278;-67
2021/06/26 05:52:28;;;;;;;9.70;8.90;;;22.90;99.90;;;;;;5093847;28;20215;-66
2021/06/26 05:54:53;;;;;;;10.57;8.03;;;23.10;99.90;;;;;;5093475;28;20424;-68
2021/06/26 05:57:19;;;;;;;11.60;10.10;;;23.10;99.90;;;;;;5094019;28;20168;-66
2021/06/26 05:59:45;;;;;;;9.60;8.63;;;23.20;99.90;;;;;;5109372;28;20234;-66
2021/06/26 06:02:13;;;;;;;10.10;9.10;;;23.50;99.90;;;;;;5093624;28;20234;-68
2021/06/26 06:04:42;;;;;;;10.67;8.43;;;23.50;99.90;;;;;;5109310;28;20172;-66
2021/06/26 06:07:09;;;;;;;10.20;8.90;;;23.60;99.90;;;;;;5093474;28;20445;-68
2021/06/26 06:09:34;;;;;;;12.63;9.30;;;23.70;99.90;;;;;;5093503;28;20402;-66
2021/06/26 06:12:00;;;;;;;9.13;8.33;;;23.80;99.90;;;;;;5109151;28;20446;-69
2021/06/26 06:14:26;;;;;;;10.03;9.03;;;23.80;99.90;;;;;;5093376;28;20243;-66
2021/06/26 06:16:52;;;;;;;9.40;8.23;;;23.90;99.90;;;;;;5093484;28;20502;-66
2021/06/26 06:19:17;;;;;;;11.00;9.60;;;24.00;99.90;;;;;;5109074;28;20181;-66
2021/06/26 06:21:43;;;;;;;9.70;8.60;;;24.20;99.90;;;;;;5109124;28;20196;-66
2021/06/26 06:24:09;;;;;;;8.70;7.33;;;24.30;99.90;;;;;;5109064;28;20561;-66
2021/06/26 06:26:34;;;;;;;9.03;8.13;;;24.40;99.90;;;;;;5096411;28;20198;-67
2021/06/26 06:29:00;;;;;;;10.67;8.80;;;24.50;99.90;;;;;;5097870;28;20184;-67
2021/06/26 06:31:26;;;;;;;9.10;8.20;;;24.60;99.90;;;;;;5097044;28;20561;-68
2021/06/26 06:33:51;;;;;;;9.70;7.90;;;24.70;99.90;;;;;;5112774;28;20220;-65
2021/06/26 06:36:17;;;;;;;9.70;8.80;;;24.70;99.90;;;;;;5097258;28;20197;-65
2021/06/26 06:38:42;;;;;;;10.20;9.03;;;24.70;99.90;;;;;;5113091;28;20193;-67
2021/06/26 06:41:08;;;;;;;9.80;8.80;;;24.80;99.90;;;;;;5097074;28;20243;-68
2021/06/26 06:43:34;;;;;;;9.37;8.57;;;24.80;99.90;;;;;;5097564;28;20231;-68
2021/06/26 06:46:03;;;;;;;9.67;8.67;;;24.90;99.90;;;;;;5096955;28;20199;-66
2021/06/26 06:48:28;;;;;;;11.30;8.57;;;25.00;99.90;;;;;;5112650;28;20179;-68
2021/06/26 06:50:54;;;;;;;10.10;9.10;;;25.10;99.90;;;;;;5096837;28;21007;-66
2021/06/26 06:53:19;;;;;;;9.87;8.97;;;25.30;99.90;;;;;;5097074;28;20207;-66
2021/06/26 06:55:50;;;;;;;10.60;9.50;;;25.40;99.90;;;;;;5096858;28;20199;-65
2021/06/26 06:58:19;;;;;;;8.83;8.00;;;25.30;99.90;;;;;;5112675;28;20252;-67
2021/06/26 07:00:45;;;;;;;9.87;8.07;;;25.40;99.90;;;;;;5096727;28;20933;-67
2021/06/26 07:03:12;;;;;;;9.73;7.50;;;25.70;99.90;;;;;;5096913;28;20515;-67
2021/06/26 07:05:37;;;;;;;11.43;8.80;;;25.90;99.90;;;;;;5096648;28;20420;-65
2021/06/26 07:08:03;;;;;;;9.73;8.53;;;25.90;99.90;;;;;;5112484;28;20470;-67
2021/06/26 07:10:29;;;;;;;9.00;7.80;;;26.00;99.90;;;;;;5096528;28;20287;-68
2021/06/26 07:12:54;;;;;;;9.83;8.77;;;26.20;99.90;;;;;;5096501;28;20508;-67
2021/06/26 07:15:20;;;;;;;10.03;8.50;;;26.10;99.90;;;;;;5096319;28;20199;-67
2021/06/26 07:17:45;;;;;;;9.00;8.10;;;26.00;99.90;;;;;;5096722;28;20180;-67
2021/06/26 07:20:12;;;;;;;11.67;9.40;;;26.20;99.90;;;;;;5096584;28;20283;-68
2021/06/26 07:22:37;;;;;;;10.67;9.77;;;26.10;99.90;;;;;;5096509;28;20179;-66
2021/06/26 07:25:04;;;;;;;10.00;8.90;;;25.90;99.90;;;;;;5111982;28;20601;-66
2021/06/26 07:27:29;;;;;;;11.70;9.30;;;26.00;99.90;;;;;;5096344;28;20580;-66
2021/06/26 07:29:55;;;;;;;11.30;9.87;;;26.20;99.90;;;;;;5096091;28;20539;-67
2021/06/26 07:32:20;;;;;;;11.87;10.10;;;26.30;99.90;;;;;;5096346;28;20185;-66
2021/06/26 07:34:46;;;;;;;11.40;10.20;;;26.30;99.90;;;;;;5095993;28;20161;-67
2021/06/26 07:37:12;;;;;;;11.47;10.27;;;26.60;99.90;;;;;;5110863;28;20637;-66
2021/06/26 07:39:37;;;;;;;11.77;10.50;;;26.40;99.90;;;;;;5111715;28;20198;-67
2021/06/26 07:42:03;;;;;;;13.17;9.40;;;26.70;99.90;;;;;;5095879;28;20191;-66
2021/06/26 07:44:29;;;;;;;14.37;9.87;;;26.40;99.90;;;;;;5095911;28;20169;-65
2021/06/26 07:46:55;;;;;;;13.43;9.83;;;26.60;99.90;;;;;;5095844;28;20428;-66
2021/06/26 07:49:20;;;;;;;9.60;8.70;;;27.10;99.90;;;;;;5095852;28;20176;-67
2021/06/26 07:51:46;;;;;;;11.90;9.73;;;27.30;99.90;;;;;;5111347;28;20223;-66
2021/06/26 07:54:12;;;;;;;12.70;8.90;;;27.20;99.90;;;;;;5111309;28;20213;-66
2021/06/26 07:56:37;;;;;;;10.23;9.23;;;27.30;99.90;;;;;;5095638;28;20237;-66
2021/06/26 07:59:03;;;;;;;10.13;9.13;;;27.20;99.90;;;;;;5096094;28;20529;-68
2021/06/26 08:01:29;;;;;;;10.70;9.70;;;27.50;99.90;;;;;;5111284;28;20196;-68
2021/06/26 08:03:54;;;;;;;10.90;9.57;;;27.70;99.90;;;;;;5111392;28;20187;-68
2021/06/26 08:06:20;;;;;;;9.37;8.47;;;28.00;99.90;;;;;;5095570;28;20184;-66
2021/06/26 08:08:45;;;;;;;10.97;9.97;;;27.90;99.90;;;;;;5111416;28;20230;-68
2021/06/26 08:11:11;;;;;;;11.13;9.63;;;27.80;99.90;;;;;;5095070;28;20230;-67
2021/06/26 08:13:37;;;;;;;10.50;9.50;;;27.50;99.90;;;;;;5111242;28;20219;-67
2021/06/26 08:16:02;;;;;;;11.30;10.10;;;27.60;99.90;;;;;;5110786;28;20205;-67
2021/06/26 08:18:28;;;;;;;10.60;9.50;;;28.00;99.90;;;;;;5111217;28;20263;-66
2021/06/26 08:20:53;;;;;;;12.60;9.43;;;28.00;99.90;;;;;;5110903;28;20192;-66
2021/06/26 08:23:19;;;;;;;12.53;10.07;;;28.00;99.90;;;;;;5110929;28;20180;-68
2021/06/26 08:25:45;;;;;;;10.33;8.97;;;28.20;99.90;;;;;;5094939;28;20273;-68
2021/06/26 08:28:10;;;;;;;10.30;8.87;;;27.90;99.90;;;;;;5095322;28;20571;-68
2021/06/26 08:30:36;;;;;;;10.83;9.40;;;27.90;99.90;;;;;;5095054;28;20219;-66
2021/06/26 08:33:02;;;;;;;10.60;9.60;;;27.90;99.90;;;;;;5095246;28;20173;-66
2021/06/26 08:35:28;;;;;;;10.63;8.27;;;28.00;99.90;;;;;;5094780;28;20685;-69
2021/06/26 08:37:53;;;;;;;15.03;9.40;;;28.10;99.90;;;;;;5095174;28;20585;-66
2021/06/26 08:40:21;;;;;;;10.67;9.07;;;28.10;99.90;;;;;;5094776;28;20575;-67
2021/06/26 08:42:47;;;;;;;10.10;9.10;;;28.30;99.90;;;;;;5110562;28;20181;-67
2021/06/26 08:45:17;;;;;;;10.53;9.13;;;28.60;99.90;;;;;;5094735;28;20978;-66
2021/06/26 08:47:45;;;;;;;12.10;9.00;;;28.50;99.90;;;;;;5094921;28;20409;-67
2021/06/26 08:50:11;;;;;;;10.10;8.97;;;28.20;99.90;;;;;;5110229;28;20484;-67
2021/06/26 08:52:37;;;;;;;9.60;8.60;;;28.30;99.90;;;;;;5110342;28;20424;-66
2021/06/26 08:55:03;;;;;;;9.70;8.83;;;28.20;99.90;;;;;;5094353;28;20176;-68
2021/06/26 08:57:33;;;;;;;9.47;8.57;;;28.30;99.90;;;;;;5094644;28;20259;-68
2021/06/26 08:59:59;;;;;;;9.67;8.77;;;28.60;99.90;;;;;;5094447;28;20397;-66
2021/06/26 09:02:27;;;;;;;11.20;8.47;;;29.10;99.90;;;;;;5094630;28;20895;-68
2021/06/26 09:04:53;;;;;;;10.10;9.10;;;28.90;99.90;;;;;;5094421;28;20951;-68
2021/06/26 09:07:38;;;;;;;8.83;8.03;;;28.70;99.90;;;;;;5094546;28;20425;-66
2021/06/26 09:10:11;;;;;;;9.20;8.30;;;28.70;99.90;;;;;;5094320;28;20199;-67
2021/06/26 09:12:38;;;;;;;8.67;7.87;;;28.30;99.90;;;;;;5110085;28;20440;-67
2021/06/26 09:15:07;;;;;;;8.43;7.63;;;28.60;99.90;;;;;;5094055;28;20983;-67
2021/06/26 09:17:34;;;;;;;7.97;7.20;;;29.00;99.90;;;;;;5094144;28;20819;-66
2021/06/26 09:20:05;;;;;;;8.23;7.43;;;29.10;99.90;;;;;;5092796;28;20456;-67
2021/06/26 09:22:40;;;;;;;9.50;8.17;;;29.10;99.90;;;;;;5093234;28;20477;-69
2021/06/26 09:25:20;;;;;;;8.60;7.80;;;29.10;99.90;;;;;;5094000;28;20457;-68
2021/06/26 09:27:46;;;;;;;8.50;7.60;;;29.30;99.90;;;;;;5094356;28;20420;-67
2021/06/26 09:30:12;;;;;;;9.17;6.80;;;29.50;99.90;;;;;;5093916;28;20485;-68
2021/06/26 09:32:45;;;;;;;7.30;6.60;;;29.60;99.90;;;;;;5094206;28;20197;-68
2021/06/26 09:35:16;;;;;;;7.87;7.00;;;29.10;99.90;;;;;;5094007;28;20770;-68
2021/06/26 09:37:43;;;;;;;7.93;7.13;;;29.10;99.90;;;;;;5094312;28;20413;-68
2021/06/26 09:40:11;;;;;;;8.37;7.57;;;29.30;99.90;;;;;;5093806;28;20431;-69
2021/06/26 09:42:39;;;;;;;9.93;6.80;;;29.40;99.90;;;;;;5094007;28;20420;-67
2021/06/26 09:45:10;;;;;;;8.00;7.20;;;29.30;99.90;;;;;;5093775;28;20939;-66
2021/06/26 09:47:38;;;;;;;8.17;7.37;;;29.30;99.90;;;;;;5094072;28;20476;-66
2021/06/26 09:50:11;;;;;;;7.87;7.10;;;29.80;99.90;;;;;;5093607;28;20463;-66
2021/06/26 09:52:44;;;;;;;7.00;6.40;;;29.90;99.90;;;;;;5092495;28;20446;-66
2021/06/26 09:55:21;;;;;;;7.57;6.90;;;30.00;99.90;;;;;;5093514;28;20481;-69
2021/06/26 09:57:48;;;;;;;8.77;7.90;;;30.20;99.90;;;;;;5093878;28;20415;-67
2021/06/26 10:00:16;;;;;;;9.20;7.73;;;30.40;99.90;;;;;;5094479;28;20508;-66
2021/06/26 10:02:43;;;;;;;9.40;6.80;;;30.00;99.90;;;;;;5098175;28;20901;-66
2021/06/26 10:05:09;;;;;;;7.57;6.97;;;30.00;99.90;;;;;;5097844;28;20810;-67
2021/06/26 10:07:38;;;;;;;7.17;6.10;;;30.30;99.90;;;;;;5113489;28;20430;-68
2021/06/26 10:10:04;;;;;;;10.70;6.97;;;30.80;99.90;;;;;;5097652;28;20468;-68
2021/06/26 10:12:30;;;;;;;8.07;7.20;;;30.50;99.90;;;;;;5113526;28;20520;-66
2021/06/26 10:14:57;;;;;;;8.80;7.80;;;30.60;99.90;;;;;;5097448;28;20491;-67
2021/06/26 10:17:22;;;;;;;8.37;7.50;;;30.60;99.90;;;;;;5113428;28;21018;-68
2021/06/26 10:19:50;;;;;;;7.80;7.10;;;30.70;99.90;;;;;;5097530;28;20432;-67
2021/06/26 10:22:16;;;;;;;7.53;6.80;;;30.90;99.90;;;;;;5097646;28;20183;-66
2021/06/26 10:24:43;;;;;;;6.63;5.93;;;30.90;99.90;;;;;;5097522;28;20459;-67
2021/06/26 10:27:20;;;;;;;8.57;7.47;;;30.90;99.90;;;;;;5097415;28;20183;-66
2021/06/26 10:29:46;;;;;;;9.17;7.60;;;30.60;99.90;;;;;;5096004;28;20819;-67
2021/06/26 10:32:14;;;;;;;10.93;7.60;;;30.30;99.90;;;;;;5097441;28;20834;-68
2021/06/26 10:34:44;;;;;;;7.40;6.70;;;30.20;99.90;;;;;;5097147;28;20461;-69
2021/06/26 10:37:15;;;;;;;6.40;5.80;;;30.80;99.90;;;;;;5113055;28;20430;-66
2021/06/26 10:39:41;;;;;;;6.73;6.13;;;30.80;99.90;;;;;;5112980;28;20405;-69
2021/06/26 10:42:12;;;;;;;7.60;6.80;;;30.50;99.90;;;;;;5112856;28;20808;-68
2021/06/26 10:44:49;;;;;;;6.70;6.10;;;30.50;99.90;;;;;;5097287;28;20166;-67
2021/06/26 10:47:16;;;;;;;6.63;6.03;;;30.90;99.90;;;;;;5097251;28;20420;-66
2021/06/26 10:49:43;;;;;;;7.57;6.80;;;30.40;99.90;;;;;;5097108;28;20414;-69
2021/06/26 10:52:12;;;;;;;7.50;6.80;;;30.50;99.90;;;;;;5095542;28;20605;-68
2021/06/26 10:54:53;;;;;;;6.60;6.10;;;30.70;99.90;;;;;;5096708;28;20936;-68
2021/06/26 10:57:18;;;;;;;7.60;6.90;;;30.80;99.90;;;;;;5095332;28;20489;-66
2021/06/26 10:59:58;;;;;;;8.23;7.53;;;31.20;99.90;;;;;;5096684;28;20480;-68
2021/06/26 11:02:24;;;;;;;8.23;7.53;;;31.40;99.90;;;;;;5112622;28;20221;-68
2021/06/26 11:04:49;;;;;;;6.03;5.43;;;31.50;99.90;;;;;;5096687;28;20449;-67
2021/06/26 11:07:16;;;;;;;6.37;5.53;;;31.10;99.90;;;;;;5096983;28;20181;-66
2021/06/26 11:09:47;;;;;;;6.90;6.30;;;31.00;99.90;;;;;;5096716;28;20176;-67
2021/06/26 11:12:15;;;;;;;7.63;6.77;;;30.80;99.90;;;;;;5111003;28;20851;-69
2021/06/26 11:14:57;;;;;;;7.70;7.00;;;31.00;99.90;;;;;;5096442;28;20435;-66
2021/06/26 11:17:36;;;;;;;6.43;5.90;;;31.00;99.90;;;;;;5096724;28;20412;-68
2021/06/26 11:20:12;;;;;;;7.67;7.07;;;31.10;99.90;;;;;;5096502;28;20478;-66
2021/06/26 11:22:38;;;;;;;7.70;6.77;;;31.30;99.90;;;;;;5096218;28;20423;-66
2021/06/26 11:25:08;;;;;;;7.20;6.50;;;31.50;99.90;;;;;;5096300;28;20482;-68
2021/06/26 11:27:34;;;;;;;6.53;6.03;;;31.20;99.90;;;;;;5096549;28;20409;-66
2021/06/26 11:30:06;;;;;;;5.87;5.37;;;31.20;99.90;;;;;;5111842;28;20441;-66
2021/06/26 11:32:32;;;;;;;5.93;5.33;;;31.40;99.30;;;;;;5096376;28;20183;-67
2021/06/26 11:35:15;;;;;;;5.53;5.03;;;31.60;98.60;;;;;;5095911;28;20448;-66
2021/06/26 11:37:50;;;;;;;8.97;5.00;;;31.70;97.20;;;;;;5096388;28;20428;-67
2021/06/26 11:40:24;;;;;;;6.60;5.63;;;31.50;96.00;;;;;;5096101;28;20418;-67
2021/06/26 11:42:52;;;;;;;6.00;5.40;;;31.60;97.60;;;;;;5096231;28;20920;-69
2021/06/26 11:45:26;;;;;;;6.37;5.80;;;31.60;97.30;;;;;;5095915;28;20472;-66
2021/06/26 11:48:04;;;;;;;5.57;5.07;;;31.90;96.90;;;;;;5111741;28;20539;-67
2021/06/26 11:50:30;;;;;;;6.27;5.77;;;31.70;95.10;;;;;;5095784;28;20472;-68
2021/06/26 11:53:23;;;;;;;5.73;5.13;;;31.60;96.50;;;;;;5096039;28;20520;-67
2021/06/26 11:56:03;;;;;;;6.40;5.63;;;31.30;96.40;;;;;;5091763;28;20285;-68
2021/06/26 11:58:48;;;;;;;5.10;4.60;;;31.70;96.50;;;;;;5096177;28;20905;-66
2021/06/26 12:01:25;;;;;;;5.73;5.23;;;31.50;95.20;;;;;;5095655;28;20797;-68
2021/06/26 12:03:52;;;;;;;5.23;4.37;;;31.50;94.70;;;;;;5111557;28;20434;-67
2021/06/26 12:06:18;;;;;;;4.20;3.60;;;31.70;92.90;;;;;;5111191;28;20440;-68
2021/06/26 12:08:46;;;;;;;5.10;4.60;;;31.90;93.10;;;;;;5095899;28;20424;-68
2021/06/26 12:11:13;;;;;;;5.00;4.50;;;32.10;93.20;;;;;;5095293;28;20469;-67
2021/06/26 12:13:43;;;;;;;5.00;4.50;;;32.10;93.10;;;;;;5095791;28;20917;-67
2021/06/26 12:16:13;;;;;;;4.93;4.17;;;32.10;92.60;;;;;;5110789;28;20848;-67
2021/06/26 12:18:50;;;;;;;4.50;4.07;;;32.00;93.50;;;;;;5095873;28;20517;-68
2021/06/26 12:21:16;;;;;;;4.90;4.40;;;31.90;93.20;;;;;;5095192;28;20444;-67
2021/06/26 12:23:46;;;;;;;4.63;4.23;;;32.40;93.90;;;;;;5095046;28;20954;-67
2021/06/26 12:26:25;;;;;;;3.90;3.60;;;32.40;91.80;;;;;;5095257;28;20751;-68
2021/06/26 12:28:52;;;;;;;3.90;3.60;;;32.20;91.70;;;;;;5095101;28;20417;-67
2021/06/26 12:31:19;;;;;;;4.47;4.07;;;32.30;91.50;;;;;;5095027;28;21004;-67
2021/06/26 12:33:47;;;;;;;4.40;3.97;;;32.70;91.40;;;;;;5095523;28;20413;-68
2021/06/26 12:36:17;;;;;;;5.47;4.03;;;32.60;91.40;;;;;;5094815;28;20516;-68
2021/06/26 12:38:43;;;;;;;4.23;3.83;;;32.50;91.90;;;;;;5095427;28;20427;-66
2021/06/26 12:41:25;;;;;;;5.37;4.10;;;32.40;91.40;;;;;;5094804;28;20437;-67
2021/06/26 12:43:54;;;;;;;4.80;4.40;;;32.10;90.90;;;;;;5095285;28;20466;-68